Time;durP1;ratioP1;P1;durP2;ratioP2;P2;SDS_P1;SDS_P2;PMS_P1;PMS_P2;Temp;Humidity;BMP_temperature;BMP_pressure;BME280_temperature;BME280_humidity;BME280_pressure;Samples;Min_cycle;Max_cycle;Signal;HPM_P1;HPM_P2
2021/11/18 00:01:11;;;;;;;25.90;15.80;;;;;;;6.99;74.57;100520.92;129970;1286;97726;-77
2021/11/18 00:04:14;;;;;;;26.20;16.50;;;;;;;6.94;74.40;100521.27;129974;1287;96659;-76
2021/11/18 00:07:16;;;;;;;26.90;17.20;;;;;;;6.98;75.04;100512.71;129996;1282;97423;-75
2021/11/18 00:10:21;;;;;;;25.80;17.10;;;;;;;7.02;74.70;100514.46;129895;1287;97753;-77
2021/11/18 00:13:27;;;;;;;26.80;17.60;;;;;;;7.05;74.49;100512.98;129938;1286;96655;-76
2021/11/18 00:16:29;;;;;;;27.10;17.30;;;;;;;7.06;74.88;100518.22;130022;1286;97339;-77
2021/11/18 00:19:32;;;;;;;26.90;17.80;;;;;;;7.04;74.90;100523.52;129929;1285;97451;-75
2021/11/18 00:22:35;;;;;;;26.40;15.60;;;;;;;7.01;74.44;100522.66;129901;1286;96752;-75
2021/11/18 00:25:37;;;;;;;24.80;15.60;;;;;;;6.99;74.81;100520.40;129869;1286;96772;-76
2021/11/18 00:28:41;;;;;;;28.10;17.00;;;;;;;6.98;75.07;100516.06;129957;1286;97747;-76
2021/11/18 00:31:44;;;;;;;27.20;17.30;;;;;;;7.00;75.29;100515.89;130029;1281;96676;-75
2021/11/18 00:34:46;;;;;;;28.20;17.10;;;;;;;7.01;75.21;100520.75;129942;1285;97756;-75
2021/11/18 00:37:49;;;;;;;27.00;17.40;;;;;;;7.03;75.06;100517.26;129877;1286;97717;-75
2021/11/18 00:40:54;;;;;;;24.00;16.30;;;;;;;6.99;75.25;100516.60;129889;1287;97304;-74
2021/11/18 00:43:57;;;;;;;24.10;14.30;;;;;;;6.96;75.14;100521.13;129992;1286;97771;-75
2021/11/18 00:47:00;;;;;;;21.60;13.50;;;;;;;6.96;75.26;100522.36;129880;1286;96728;-77
2021/11/18 00:50:04;;;;;;;21.20;13.70;;;;;;;6.97;75.14;100522.31;129918;1286;97307;-75
2021/11/18 00:53:08;;;;;;;23.20;15.60;;;;;;;7.00;75.31;100528.57;129931;1287;96646;-75
2021/11/18 00:56:11;;;;;;;21.50;15.00;;;;;;;6.98;75.38;100526.68;129894;1286;97400;-74
2021/11/18 00:59:15;;;;;;;23.40;15.60;;;;;;;6.94;75.29;100524.46;129928;1286;97329;-74
2021/11/18 01:02:18;;;;;;;25.00;15.80;;;;;;;6.92;75.23;100530.83;129951;1287;96754;-75
2021/11/18 01:05:25;;;;;;;20.80;13.40;;;;;;;6.92;75.18;100530.15;129892;1284;97452;-75
2021/11/18 01:08:28;;;;;;;19.70;12.40;;;;;;;6.93;75.29;100526.52;130015;1286;98650;-75
2021/11/18 01:11:32;;;;;;;24.50;14.20;;;;;;;6.95;75.39;100523.70;129943;1286;97662;-74
2021/11/18 01:14:37;;;;;;;22.50;14.60;;;;;;;6.96;75.54;100531.23;129978;1287;97756;-77
2021/11/18 01:17:40;;;;;;;23.50;14.90;;;;;;;7.00;75.33;100533.77;129940;1287;96677;-76
2021/11/18 01:20:45;;;;;;;22.20;14.90;;;;;;;6.96;75.34;100528.00;129969;1286;96720;-77
2021/11/18 01:23:50;;;;;;;23.00;14.90;;;;;;;6.92;75.46;100532.09;129957;1285;97419;-78
2021/11/18 01:26:57;;;;;;;23.00;13.20;;;;;;;6.91;75.43;100529.69;129887;1285;97742;-77
2021/11/18 01:30:01;;;;;;;21.00;13.30;;;;;;;6.89;75.49;100524.00;130072;1284;96678;-77
2021/11/18 01:33:05;;;;;;;22.00;13.80;;;;;;;6.88;75.45;100528.33;129901;1285;97069;-78
2021/11/18 01:36:12;;;;;;;22.90;14.40;;;;;;;6.89;75.53;100533.89;130229;1287;97649;-79
2021/11/18 01:39:22;;;;;;;22.40;15.30;;;;;;;6.89;75.72;100539.91;129917;1286;96661;-77
2021/11/18 01:42:25;;;;;;;23.10;15.00;;;;;;;6.91;75.39;100543.45;129907;1286;96659;-76
2021/11/18 01:45:32;;;;;;;22.70;15.50;;;;;;;6.92;75.51;100543.89;129870;1286;96659;-77
2021/11/18 01:48:35;;;;;;;21.30;14.10;;;;;;;6.90;75.85;100546.20;129936;1287;97724;-77
2021/11/18 01:51:42;;;;;;;19.30;12.60;;;;;;;6.87;75.54;100551.36;129963;1285;97388;-77
2021/11/18 01:54:45;;;;;;;24.10;15.00;;;;;;;6.89;75.76;100556.91;129950;1287;96657;-79
2021/11/18 01:57:50;;;;;;;28.20;17.10;;;;;;;6.91;75.52;100556.03;129965;1286;96650;-80
2021/11/18 02:01:13;;;;;;;22.40;14.50;;;;;;;6.91;75.88;100553.36;130045;1285;97766;-78
2021/11/18 02:04:18;;;;;;;22.20;14.90;;;;;;;6.94;75.79;100553.33;129902;1287;96678;-80
2021/11/18 02:07:24;;;;;;;25.20;15.50;;;;;;;6.92;75.96;100551.54;129918;1286;96646;-79
2021/11/18 02:10:30;;;;;;;21.00;13.70;;;;;;;6.89;75.93;100554.23;129923;1286;96761;-80
2021/11/18 02:13:33;;;;;;;20.90;11.70;;;;;;;6.86;75.93;100557.13;129989;1286;97639;-77
2021/11/18 02:16:36;;;;;;;22.10;13.90;;;;;;;6.86;75.98;100563.48;130099;1286;96741;-77
2021/11/18 02:19:41;;;;;;;22.20;14.00;;;;;;;6.85;76.08;100563.77;129965;1285;97763;-80
2021/11/18 02:22:46;;;;;;;21.40;13.60;;;;;;;6.82;76.16;100564.86;130002;1286;96687;-80
2021/11/18 02:25:50;;;;;;;20.80;14.00;;;;;;;6.82;76.15;100562.58;129922;1287;97733;-79
2021/11/18 02:28:57;;;;;;;18.70;12.20;;;;;;;6.76;76.38;100566.05;129822;1286;120965;-79
2021/11/18 02:32:04;;;;;;;18.50;11.80;;;;;;;6.74;76.47;100566.05;130032;1285;97746;-79
2021/11/18 02:35:21;;;;;;;19.30;12.00;;;;;;;6.78;76.40;100565.59;130047;1286;96656;-79
2021/11/18 02:38:24;;;;;;;19.50;13.10;;;;;;;6.82;76.56;100565.92;129921;1286;97461;-79
2021/11/18 02:41:33;;;;;;;20.10;13.20;;;;;;;6.85;76.56;100564.42;129970;1284;97255;-78
2021/11/18 02:44:37;;;;;;;21.10;13.60;;;;;;;6.86;76.37;100562.25;129994;1286;96722;-82
2021/11/18 02:47:41;;;;;;;19.70;13.60;;;;;;;6.84;76.63;100563.13;130134;1286;97725;-81
2021/11/18 02:50:52;;;;;;;18.90;11.70;;;;;;;6.83;76.53;100565.81;130253;1285;97346;-81
2021/11/18 02:53:56;;;;;;;17.80;11.30;;;;;;;6.82;76.82;100569.11;129942;1286;97358;-79
2021/11/18 02:56:59;;;;;;;19.60;12.30;;;;;;;6.82;76.60;100570.16;130062;1285;96815;-76
2021/11/18 03:00:03;;;;;;;19.50;13.10;;;;;;;6.83;76.77;100578.92;130055;1287;96719;-74
2021/11/18 03:03:07;;;;;;;18.00;12.20;;;;;;;6.87;76.50;100580.90;130050;1287;97751;-78
2021/11/18 03:06:11;;;;;;;18.30;12.00;;;;;;;6.89;76.82;100575.98;129958;1286;97474;-78
2021/11/18 03:09:13;;;;;;;20.90;13.10;;;;;;;6.92;76.98;100582.13;129936;1287;97728;-77
2021/11/18 03:12:16;;;;;;;18.80;11.20;;;;;;;6.91;77.15;100586.50;129902;1285;97739;-77
2021/11/18 03:15:21;;;;;;;17.70;11.10;;;;;;;6.89;76.91;100583.80;129939;1286;98435;-76
2021/11/18 03:18:25;;;;;;;18.80;11.70;;;;;;;6.89;77.14;100581.78;129990;1284;96732;-77
2021/11/18 03:21:28;;;;;;;17.40;11.80;;;;;;;6.92;77.28;100589.05;129959;1285;97626;-76
2021/11/18 03:24:32;;;;;;;19.10;12.20;;;;;;;6.94;77.11;100589.71;129967;1286;97221;-76
2021/11/18 03:27:36;;;;;;;19.90;12.70;;;;;;;6.90;77.11;100593.94;129839;1285;97653;-77
2021/11/18 03:30:41;;;;;;;20.50;12.80;;;;;;;6.84;77.36;100593.73;129990;1287;96629;-77
2021/11/18 03:33:48;;;;;;;17.70;11.50;;;;;;;6.73;77.14;100588.59;129984;1286;97725;-79
2021/11/18 03:36:51;;;;;;;18.10;12.00;;;;;;;6.71;77.42;100592.95;129918;1287;97483;-79
2021/11/18 03:39:54;;;;;;;21.00;13.40;;;;;;;6.70;77.67;100596.20;129966;1286;96642;-77
2021/11/18 03:42:59;;;;;;;20.70;13.00;;;;;;;6.72;77.37;100588.64;129985;1286;97436;-79
2021/11/18 03:46:04;;;;;;;28.80;18.70;;;;;;;6.80;77.37;100584.88;130099;1286;96773;-78
2021/11/18 03:49:10;;;;;;;30.50;17.70;;;;;;;6.84;77.60;100581.71;130012;1286;96653;-76
2021/11/18 03:52:18;;;;;;;27.00;16.60;;;;;;;6.83;77.32;100584.98;130111;1286;96639;-82
2021/11/18 03:55:22;;;;;;;20.90;13.80;;;;;;;6.80;77.20;100585.02;130122;1286;98140;-74
2021/11/18 03:58:26;;;;;;;22.30;13.00;;;;;;;6.80;77.49;100588.59;130019;1286;97455;-78
2021/11/18 04:01:29;;;;;;;22.70;14.60;;;;;;;6.80;77.37;100588.22;130091;1287;97633;-77
2021/11/18 04:04:35;;;;;;;22.70;14.90;;;;;;;6.85;77.45;100586.76;130058;1286;97515;-77
2021/11/18 04:07:39;;;;;;;25.10;15.60;;;;;;;6.88;77.54;100590.40;129980;1286;96642;-76
2021/11/18 04:10:44;;;;;;;26.90;15.80;;;;;;;6.89;77.40;100589.11;129999;1285;96660;-79
2021/11/18 04:13:46;;;;;;;26.60;16.40;;;;;;;6.89;77.14;100590.69;130043;1286;96697;-79
2021/11/18 04:16:49;;;;;;;22.90;14.00;;;;;;;6.85;77.20;100588.65;130074;1287;97680;-79
2021/11/18 04:19:53;;;;;;;22.50;12.70;;;;;;;6.83;77.39;100600.85;129942;1286;99496;-78
2021/11/18 04:22:56;;;;;;;26.00;15.30;;;;;;;6.83;77.26;100605.13;129911;1287;97727;-78
2021/11/18 04:26:02;;;;;;;25.30;15.40;;;;;;;6.83;77.57;100603.66;130038;1286;96763;-78
2021/11/18 04:29:06;;;;;;;26.40;16.10;;;;;;;6.86;77.44;100602.04;129902;1286;96726;-78
2021/11/18 04:32:14;;;;;;;26.00;15.60;;;;;;;6.91;77.26;100605.06;130138;1285;96725;-77
2021/11/18 04:35:18;;;;;;;25.20;16.10;;;;;;;6.92;77.13;100609.20;129966;1287;97751;-78
2021/11/18 04:38:21;;;;;;;23.50;14.20;;;;;;;6.88;77.15;100605.09;130165;1286;97603;-76
2021/11/18 04:41:28;;;;;;;25.10;14.60;;;;;;;6.85;77.27;100603.86;130138;1287;96725;-79
2021/11/18 04:44:32;;;;;;;25.20;14.90;;;;;;;6.87;77.32;100590.80;130087;1284;119652;-78
2021/11/18 04:47:35;;;;;;;25.60;16.00;;;;;;;6.92;77.29;100581.95;129991;1284;96747;-78
2021/11/18 04:50:41;;;;;;;23.90;15.80;;;;;;;6.95;77.27;100591.27;130137;1286;97766;-79
2021/11/18 04:53:44;;;;;;;25.40;15.70;;;;;;;6.97;77.11;100607.38;130236;1286;96635;-77
2021/11/18 04:56:48;;;;;;;25.20;15.20;;;;;;;6.95;77.22;100614.95;129994;1287;96655;-78
2021/11/18 04:59:51;;;;;;;25.20;14.00;;;;;;;6.93;77.05;100612.29;130056;1286;97741;-77
2021/11/18 05:02:55;;;;;;;22.70;14.10;;;;;;;6.87;77.20;100618.08;129997;1287;99452;-78
2021/11/18 05:05:59;;;;;;;26.40;16.00;;;;;;;6.86;77.32;100619.58;130012;1286;96724;-78
2021/11/18 05:09:05;;;;;;;29.60;16.00;;;;;;;6.87;77.02;100618.39;130072;1287;97371;-78
2021/11/18 05:12:08;;;;;;;26.70;16.50;;;;;;;6.91;77.36;100618.98;130154;1286;96692;-78
2021/11/18 05:15:17;;;;;;;26.60;16.40;;;;;;;6.91;77.51;100618.42;130104;1287;96709;-78
2021/11/18 05:18:20;;;;;;;53.50;35.00;;;;;;;6.88;77.56;100622.55;130728;1287;96650;-80
2021/11/18 05:21:28;;;;;;;31.10;20.30;;;;;;;6.86;77.63;100625.95;130156;1285;96672;-79
2021/11/18 05:24:31;;;;;;;27.60;16.40;;;;;;;6.84;77.73;100626.25;130093;1286;97608;-79
2021/11/18 05:27:35;;;;;;;29.00;17.10;;;;;;;6.85;77.54;100627.55;130445;1284;96740;-78
2021/11/18 05:30:39;;;;;;;25.20;16.30;;;;;;;6.87;77.69;100625.46;130484;1286;96655;-78
2021/11/18 05:33:43;;;;;;;68.90;35.50;;;;;;;6.92;77.60;100630.45;130161;1286;97752;-80
2021/11/18 05:36:47;;;;;;;53.90;29.60;;;;;;;6.92;77.73;100627.95;130249;1287;96751;-81
2021/11/18 05:39:49;;;;;;;58.40;32.60;;;;;;;6.92;77.50;100628.86;130169;1286;96649;-79
2021/11/18 05:42:53;;;;;;;31.70;18.30;;;;;;;6.89;77.53;100631.68;130119;1284;97407;-79
2021/11/18 05:45:57;;;;;;;29.30;18.60;;;;;;;6.88;77.70;100634.10;130018;1286;97739;-79
2021/11/18 05:49:03;;;;;;;51.40;33.30;;;;;;;6.90;77.53;100629.70;129842;1286;97640;-76
2021/11/18 05:52:07;;;;;;;59.20;38.00;;;;;;;6.95;77.60;100633.23;129998;1286;97050;-75
2021/11/18 05:55:12;;;;;;;33.80;21.30;;;;;;;6.98;77.77;100636.97;130018;1286;96767;-76
2021/11/18 05:58:15;;;;;;;27.70;17.50;;;;;;;6.99;77.48;100640.09;130044;1284;97153;-75
2021/11/18 06:01:20;;;;;;;26.80;18.20;;;;;;;6.97;77.38;100645.74;129891;1286;96798;-76
2021/11/18 06:04:23;;;;;;;26.60;17.30;;;;;;;6.95;77.18;100644.66;129893;1285;96709;-76
2021/11/18 06:07:34;;;;;;;149.10;77.50;;;;;;;6.90;77.17;100648.45;130005;1287;99683;-74
2021/11/18 06:10:38;;;;;;;52.70;32.10;;;;;;;6.90;77.15;100648.93;130027;1286;96667;-75
2021/11/18 06:13:42;;;;;;;94.90;47.70;;;;;;;6.92;77.57;100648.58;130069;1284;97399;-76
2021/11/18 06:16:47;;;;;;;93.00;47.10;;;;;;;6.93;77.42;100647.81;130147;1286;96652;-73
2021/11/18 06:19:49;;;;;;;129.90;66.00;;;;;;;6.94;77.49;100646.54;130056;1284;97630;-75
2021/11/18 06:22:53;;;;;;;131.30;62.80;;;;;;;6.97;77.34;100654.45;130038;1284;97755;-74
2021/11/18 06:25:56;;;;;;;115.80;48.30;;;;;;;6.96;77.04;100656.95;130098;1286;96640;-73
2021/11/18 06:28:59;;;;;;;58.20;29.70;;;;;;;6.94;77.35;100658.71;129973;1285;96718;-73
2021/11/18 06:32:04;;;;;;;29.60;18.10;;;;;;;6.95;77.22;100663.05;130025;1286;97639;-73
2021/11/18 06:35:09;;;;;;;27.50;17.20;;;;;;;6.97;77.37;100666.50;130048;1286;97805;-71
2021/11/18 06:38:12;;;;;;;27.60;17.80;;;;;;;6.97;77.40;100663.62;130036;1286;96624;-73
2021/11/18 06:41:17;;;;;;;90.90;47.60;;;;;;;6.99;77.56;100668.08;130205;1287;97181;-72
2021/11/18 06:44:20;;;;;;;146.90;62.40;;;;;;;6.99;77.19;100672.64;130024;1286;97669;-73
2021/11/18 06:47:24;;;;;;;248.10;85.70;;;;;;;6.97;77.20;100678.25;129979;1287;96750;-73
2021/11/18 06:50:27;;;;;;;259.90;98.40;;;;;;;6.98;77.58;100681.08;129996;1286;97579;-77
2021/11/18 06:53:37;;;;;;;157.20;70.60;;;;;;;7.00;77.34;100679.45;130128;1286;97646;-78
2021/11/18 06:56:41;;;;;;;300.90;112.30;;;;;;;7.05;77.36;100683.30;130224;1287;96726;-75
2021/11/18 06:59:44;;;;;;;281.80;105.90;;;;;;;7.10;76.90;100685.07;130283;1287;96662;-75
2021/11/18 07:02:47;;;;;;;223.30;85.10;;;;;;;7.14;77.33;100684.25;130269;1286;96659;-75
2021/11/18 07:05:52;;;;;;;43.70;21.50;;;;;;;7.17;77.23;100682.58;130156;1287;97635;-76
2021/11/18 07:08:55;;;;;;;206.40;89.30;;;;;;;7.16;77.02;100684.66;130588;1286;97513;-77
2021/11/18 07:11:59;;;;;;;36.60;20.80;;;;;;;7.07;77.08;100682.61;130067;1286;99525;-77
2021/11/18 07:15:02;;;;;;;26.30;15.80;;;;;;;7.06;77.29;100682.55;130079;1286;96635;-76
2021/11/18 07:18:05;;;;;;;22.40;14.10;;;;;;;7.09;77.23;100684.63;130301;1286;96758;-77
2021/11/18 07:21:09;;;;;;;22.20;13.90;;;;;;;7.12;77.15;100683.74;130671;1287;97333;-76
2021/11/18 07:24:13;;;;;;;22.60;14.10;;;;;;;7.15;77.05;100687.02;130818;1287;96670;-77
2021/11/18 07:27:15;;;;;;;22.60;14.30;;;;;;;7.19;77.42;100682.77;130487;1286;96740;-76
2021/11/18 07:30:21;;;;;;;23.30;14.00;;;;;;;7.25;77.27;100682.09;130478;1286;97741;-77
2021/11/18 07:33:25;;;;;;;20.90;11.90;;;;;;;7.31;77.31;100675.48;130202;1286;96901;-77
2021/11/18 07:36:29;;;;;;;22.30;11.90;;;;;;;7.33;77.49;100676.86;130895;1287;97512;-77
2021/11/18 07:39:32;;;;;;;22.30;12.60;;;;;;;7.35;77.38;100679.72;129925;1286;97750;-76
2021/11/18 07:42:34;;;;;;;21.70;12.60;;;;;;;7.40;77.21;100673.64;129969;1287;96774;-81
2021/11/18 07:45:58;;;;;;;21.40;12.60;;;;;;;7.45;77.09;100675.90;130083;1286;97435;-79
2021/11/18 07:49:12;;;;;;;22.20;13.40;;;;;;;7.46;77.01;100678.13;130176;1286;97368;-74
2021/11/18 07:52:15;;;;;;;19.40;12.90;;;;;;;7.41;76.81;100673.07;129938;1286;96631;-72
2021/11/18 07:55:21;;;;;;;18.60;12.60;;;;;;;7.39;77.07;100678.02;130050;1287;96838;-75
2021/11/18 07:58:25;;;;;;;21.60;13.20;;;;;;;7.40;76.92;100685.48;130026;1287;120770;-74
2021/11/18 08:01:30;;;;;;;22.20;14.90;;;;;;;7.45;76.92;100686.40;130291;1286;97495;-74
2021/11/18 08:04:33;;;;;;;19.70;12.50;;;;;;;7.52;76.86;100688.64;129948;1286;97835;-74
2021/11/18 08:07:36;;;;;;;37.70;28.80;;;;;;;7.57;76.76;100688.81;130172;1287;96667;-75
2021/11/18 08:10:40;;;;;;;54.00;39.90;;;;;;;7.58;76.55;100690.48;130148;1286;97410;-75
2021/11/18 08:13:43;;;;;;;70.90;56.70;;;;;;;7.59;76.59;100698.92;129935;1286;96759;-75
2021/11/18 08:16:47;;;;;;;152.10;101.90;;;;;;;7.56;76.46;100708.67;129929;1286;97406;-71
2021/11/18 08:19:50;;;;;;;83.30;55.80;;;;;;;7.54;76.20;100711.55;130295;1287;96650;-73
2021/11/18 08:22:53;;;;;;;118.70;65.40;;;;;;;7.54;76.40;100707.98;130029;1287;96744;-74
2021/11/18 08:25:56;;;;;;;126.10;76.10;;;;;;;7.60;76.38;100712.64;129933;1286;97609;-74
2021/11/18 08:28:59;;;;;;;75.60;39.40;;;;;;;7.68;76.73;100717.84;130240;1286;97306;-73
2021/11/18 08:32:03;;;;;;;135.90;83.00;;;;;;;7.78;76.15;100722.67;129991;1287;96774;-74
2021/11/18 08:35:13;;;;;;;57.60;36.00;;;;;;;7.88;76.50;100732.14;130098;1287;96678;-72
2021/11/18 08:38:18;;;;;;;46.80;24.40;;;;;;;7.96;76.09;100735.08;129982;1287;97002;-73
2021/11/18 08:41:21;;;;;;;41.00;26.40;;;;;;;8.00;75.92;100743.23;129944;1286;97477;-74
2021/11/18 08:44:27;;;;;;;37.60;22.60;;;;;;;7.94;75.30;100747.29;129991;1286;96641;-74
2021/11/18 08:47:30;;;;;;;27.60;16.40;;;;;;;7.88;75.82;100748.29;130077;1286;97224;-74
2021/11/18 08:50:34;;;;;;;50.30;28.70;;;;;;;7.91;75.82;100744.70;129942;1287;98932;-74
2021/11/18 08:53:40;;;;;;;30.40;17.10;;;;;;;7.98;76.07;100745.39;130099;1286;96732;-74
2021/11/18 08:56:45;;;;;;;30.30;18.00;;;;;;;8.04;76.00;100743.45;130102;1286;96661;-73
2021/11/18 08:59:49;;;;;;;44.30;23.40;;;;;;;8.11;75.91;100738.98;130025;1284;98331;-74
2021/11/18 09:02:58;;;;;;;73.30;34.50;;;;;;;8.14;75.31;100740.38;130288;1286;96646;-78
2021/11/18 09:06:04;;;;;;;22.70;12.70;;;;;;;8.13;75.31;100746.83;130117;1287;97766;-80
2021/11/18 09:09:08;;;;;;;17.20;10.30;;;;;;;8.08;75.02;100747.18;130015;1286;97755;-79
2021/11/18 09:12:11;;;;;;;16.50;9.40;;;;;;;8.04;74.91;100749.45;130000;1287;97654;-75
2021/11/18 09:15:19;;;;;;;12.70;7.50;;;;;;;8.00;74.85;100756.58;130144;1287;97429;-75
2021/11/18 09:18:22;;;;;;;20.40;13.00;;;;;;;8.03;74.74;100757.92;129928;1286;97078;-76
2021/11/18 09:21:28;;;;;;;16.20;10.10;;;;;;;8.09;74.83;100762.02;130161;1286;96722;-77
2021/11/18 09:24:33;;;;;;;16.50;8.80;;;;;;;8.07;74.07;100761.42;130107;1287;97313;-75
2021/11/18 09:27:40;;;;;;;16.80;10.60;;;;;;;8.02;74.33;100762.78;129929;1287;97486;-75
2021/11/18 09:30:47;;;;;;;22.40;13.50;;;;;;;8.00;74.51;100762.90;129943;1287;96665;-79
2021/11/18 09:33:52;;;;;;;16.90;9.10;;;;;;;7.98;74.08;100762.49;129958;1286;97622;-76
2021/11/18 09:36:56;;;;;;;21.50;12.10;;;;;;;7.89;73.99;100759.18;130034;1287;96742;-76
2021/11/18 09:40:00;;;;;;;18.40;9.20;;;;;;;7.89;74.43;100759.36;129989;1287;96914;-76
2021/11/18 09:43:43;;;;;;;16.60;8.70;;;;;;;7.95;74.61;100764.02;129867;1287;97655;-76
2021/11/18 09:47:14;;;;;;;17.10;10.00;;;;;;;8.04;74.48;100766.15;130024;1286;96681;-77
2021/11/18 09:50:41;;;;;;;15.10;7.60;;;;;;;8.10;74.08;100752.52;129999;1287;97460;-77
2021/11/18 09:54:02;;;;;;;13.40;9.00;;;;;;;8.12;74.15;100752.73;131149;1287;96719;-76
2021/11/18 09:57:25;;;;;;;20.30;9.00;;;;;;;8.12;73.68;100747.45;130267;1286;97720;-76
2021/11/18 10:00:53;;;;;;;14.10;8.50;;;;;;;8.02;74.24;100739.13;130509;1286;96795;-76
2021/11/18 10:04:19;;;;;;;14.90;8.50;;;;;;;8.03;74.05;100735.06;130128;1287;96672;-75
2021/11/18 10:07:25;;;;;;;15.30;8.30;;;;;;;8.03;74.29;100734.88;129692;1284;97738;-75
2021/11/18 10:10:35;;;;;;;15.20;7.90;;;;;;;8.14;74.36;100732.73;130012;1287;96802;-74
2021/11/18 10:13:53;;;;;;;14.50;8.40;;;;;;;8.27;73.97;100734.54;129964;1287;96806;-74
2021/11/18 10:17:01;;;;;;;13.40;7.70;;;;;;;8.29;73.85;100725.49;130166;1287;96662;-74
2021/11/18 10:20:08;;;;;;;16.50;8.00;;;;;;;8.37;73.74;100724.99;130048;1287;96652;-75
2021/11/18 10:23:13;;;;;;;14.00;8.50;;;;;;;8.46;73.43;100720.20;129995;1287;96779;-75
2021/11/18 10:26:19;;;;;;;17.20;8.70;;;;;;;8.52;73.27;100728.02;129819;1287;97735;-75
2021/11/18 10:29:24;;;;;;;17.40;8.10;;;;;;;8.61;73.22;100732.72;130030;1287;97423;-74
2021/11/18 10:32:30;;;;;;;15.80;8.70;;;;;;;8.59;72.36;100733.13;129990;1286;97396;-75
2021/11/18 10:35:39;;;;;;;14.00;7.40;;;;;;;8.48;71.85;100740.03;129772;1287;96669;-74
2021/11/18 10:38:50;;;;;;;13.00;7.10;;;;;;;8.36;71.94;100735.55;130096;1286;97260;-75
2021/11/18 10:41:57;;;;;;;14.80;7.80;;;;;;;8.22;71.97;100736.11;129989;1287;97511;-75
2021/11/18 10:45:04;;;;;;;14.10;7.30;;;;;;;8.21;72.35;100740.98;129902;1287;96669;-74
2021/11/18 10:48:17;;;;;;;13.20;7.20;;;;;;;8.24;71.93;100741.08;130135;1287;97632;-75
2021/11/18 10:51:30;;;;;;;15.30;9.80;;;;;;;8.30;72.18;100729.27;129968;1286;96664;-74
2021/11/18 10:54:43;;;;;;;15.80;7.70;;;;;;;8.34;71.84;100719.57;130059;1285;96771;-74
2021/11/18 10:57:58;;;;;;;13.40;6.80;;;;;;;8.35;72.17;100716.84;130147;1286;97892;-75
2021/11/18 11:01:05;;;;;;;12.00;6.70;;;;;;;8.32;71.02;100718.48;130254;1286;97771;-75
2021/11/18 11:04:10;;;;;;;12.30;5.60;;;;;;;8.26;71.07;100722.66;130228;1286;96690;-74
2021/11/18 11:07:14;;;;;;;10.90;5.30;;;;;;;8.23;71.25;100722.59;130078;1287;96945;-74
2021/11/18 11:10:19;;;;;;;9.80;4.80;;;;;;;8.25;71.23;100725.02;129854;1286;99521;-75
2021/11/18 11:13:34;;;;;;;9.60;4.70;;;;;;;8.28;71.01;100736.70;130076;1287;97311;-78
2021/11/18 11:17:00;;;;;;;7.90;4.30;;;;;;;8.42;70.83;100740.88;129966;1286;97645;-75
2021/11/18 11:20:08;;;;;;;9.10;4.20;;;;;;;8.58;70.47;100745.80;129926;1287;96662;-75
2021/11/18 11:23:21;;;;;;;10.30;4.20;;;;;;;8.57;69.31;100749.63;130009;1285;96649;-75
2021/11/18 11:27:04;;;;;;;20.80;9.40;;;;;;;8.53;69.07;100748.19;129935;1286;97722;-73
2021/11/18 11:30:19;;;;;;;19.90;7.30;;;;;;;8.39;68.63;100747.66;129975;1286;96743;-74
2021/11/18 11:33:27;;;;;;;137.00;46.40;;;;;;;8.28;69.53;100745.06;129981;1287;96668;-75
2021/11/18 11:36:38;;;;;;;24.20;9.40;;;;;;;8.29;69.99;100735.92;130092;1287;97372;-74
2021/11/18 11:39:49;;;;;;;21.60;11.60;;;;;;;8.34;69.89;100738.87;129945;1286;98438;-75
2021/11/18 11:43:15;;;;;;;11.10;6.00;;;;;;;8.33;69.96;100732.20;129983;1287;97747;-73
2021/11/18 11:46:41;;;;;;;11.60;6.60;;;;;;;8.25;70.03;100741.70;130041;1287;97751;-75
2021/11/18 11:49:56;;;;;;;11.80;4.90;;;;;;;8.24;70.24;100742.90;129996;1286;96732;-78
2021/11/18 11:53:05;;;;;;;10.50;5.30;;;;;;;8.15;69.79;100741.13;129983;1287;96665;-73
2021/11/18 11:56:14;;;;;;;10.40;6.10;;;;;;;8.12;69.44;100740.55;130083;1286;97189;-74
2021/11/18 11:59:22;;;;;;;11.10;5.40;;;;;;;8.13;69.80;100734.58;130148;1287;97725;-75
2021/11/18 12:02:32;;;;;;;10.80;4.80;;;;;;;8.16;69.83;100735.20;129921;1285;96669;-75
2021/11/18 12:05:40;;;;;;;12.90;5.40;;;;;;;8.24;69.70;100719.14;129895;1286;97399;-74
2021/11/18 12:08:48;;;;;;;9.80;4.80;;;;;;;8.37;69.51;100710.63;129988;1287;96738;-75
2021/11/18 12:11:57;;;;;;;9.40;4.40;;;;;;;8.49;69.34;100711.11;130068;1286;96649;-76
2021/11/18 12:15:01;;;;;;;12.70;5.20;;;;;;;8.63;69.80;100705.32;129961;1286;97787;-76
2021/11/18 12:18:14;;;;;;;9.50;4.50;;;;;;;8.79;69.39;100705.58;129944;1286;99510;-74
2021/11/18 12:21:19;;;;;;;10.70;5.00;;;;;;;8.88;68.81;100707.08;130065;1286;99164;-74
2021/11/18 12:24:24;;;;;;;9.90;5.00;;;;;;;8.89;68.95;100697.98;130068;1286;96652;-75
2021/11/18 12:27:28;;;;;;;10.70;5.00;;;;;;;8.93;69.38;100696.95;129841;1287;96648;-75
2021/11/18 12:31:30;;;;;;;10.40;5.30;;;;;;;8.98;69.37;100702.67;129949;1287;97429;-75
2021/11/18 12:34:52;;;;;;;11.50;5.20;;;;;;;8.95;69.34;100704.92;129925;1286;97722;-73
2021/11/18 12:38:07;;;;;;;11.60;5.40;;;;;;;8.89;69.32;100698.28;129907;1287;96755;-74
2021/11/18 12:41:33;;;;;;;10.80;5.10;;;;;;;8.83;69.50;100699.37;129966;1287;96655;-75
2021/11/18 12:44:54;;;;;;;14.40;6.20;;;;;;;8.76;69.48;100696.95;129875;1281;223158;-73
2021/11/18 12:48:17;;;;;;;14.20;6.60;;;;;;;8.68;69.64;100698.52;129933;1286;96669;-74
2021/11/18 12:51:24;;;;;;;13.40;6.40;;;;;;;8.58;69.68;100692.39;130115;1287;97274;-75
2021/11/18 12:54:33;;;;;;;13.50;6.10;;;;;;;8.52;69.68;100682.52;129888;1287;96675;-74
2021/11/18 12:57:37;;;;;;;10.10;5.00;;;;;;;8.46;69.54;100687.00;129904;1286;98998;-73
2021/11/18 13:00:43;;;;;;;14.10;6.30;;;;;;;8.45;69.73;100680.39;129971;1287;97743;-73
2021/11/18 13:03:59;;;;;;;10.60;6.20;;;;;;;8.44;69.78;100667.69;130056;1287;97386;-75
2021/11/18 13:07:02;;;;;;;14.30;6.50;;;;;;;8.49;69.62;100676.36;129953;1286;97331;-74
2021/11/18 13:10:29;;;;;;;10.80;6.30;;;;;;;8.51;69.48;100667.10;129928;1287;96650;-74
2021/11/18 13:13:38;;;;;;;12.00;6.00;;;;;;;8.53;69.36;100661.08;130063;1287;97725;-72
2021/11/18 13:17:02;;;;;;;11.80;6.50;;;;;;;8.56;69.68;100664.70;130062;1287;97718;-73
2021/11/18 13:20:30;;;;;;;23.40;12.90;;;;;;;8.53;69.57;100666.80;130002;1286;96696;-75
2021/11/18 13:23:38;;;;;;;72.70;36.10;;;;;;;8.49;69.57;100665.52;130003;1286;97700;-75
2021/11/18 13:26:50;;;;;;;59.10;28.70;;;;;;;8.45;69.46;100668.18;129991;1286;97001;-73
2021/11/18 13:29:55;;;;;;;138.30;70.50;;;;;;;8.43;69.66;100664.72;129883;1287;96709;-74
2021/11/18 13:33:02;;;;;;;62.60;30.40;;;;;;;8.43;69.96;100664.23;129922;1287;97631;-75
2021/11/18 13:36:07;;;;;;;133.70;63.00;;;;;;;8.44;69.86;100669.32;129838;1287;97416;-73
2021/11/18 13:39:20;;;;;;;285.80;109.60;;;;;;;8.45;69.76;100674.88;129981;1287;97362;-75
2021/11/18 13:42:28;;;;;;;307.10;113.80;;;;;;;8.49;69.64;100671.15;130251;1286;96675;-74
2021/11/18 13:45:34;;;;;;;338.20;152.50;;;;;;;8.54;69.77;100675.58;130008;1287;97820;-74
2021/11/18 13:48:55;;;;;;;187.20;120.50;;;;;;;8.57;69.70;100676.16;130038;1287;96682;-76
2021/11/18 13:52:03;;;;;;;43.00;25.00;;;;;;;8.59;69.81;100682.89;129905;1287;97474;-74
2021/11/18 13:55:11;;;;;;;25.00;12.70;;;;;;;8.56;69.77;100680.49;130016;1287;97670;-75
2021/11/18 13:58:17;;;;;;;23.10;12.80;;;;;;;8.53;69.58;100685.98;129856;1286;97772;-74
2021/11/18 14:01:26;;;;;;;26.20;11.80;;;;;;;8.44;69.73;100687.21;129936;1287;97766;-75
2021/11/18 14:04:33;;;;;;;84.80;50.70;;;;;;;8.38;69.86;100686.43;129915;1287;97675;-75
2021/11/18 14:07:41;;;;;;;21.50;12.60;;;;;;;8.32;69.96;100683.36;129871;1287;97611;-74
2021/11/18 14:10:48;;;;;;;20.30;10.90;;;;;;;8.24;70.10;100675.66;129930;1287;96870;-73